ADDS TAF Board (Experimental) INFO

IDs: Format: Expanded Condensed

Updated at: 1640 UTC 21 Oct 2014

KFLL - Ft Lauderdale-Hollyw, FL, US

Issued at 1504 UTC 21 Oct 2014
Time1553Z21/17Z21/18Z21/19Z21/20Z21/21Z21/22Z21/23Z22/00Z22/01Z22/02Z22/03Z22/04Z22/05Z
TypeOBSPRVLPRVLPRVLPRVLPRVLPRVLPRVLPRVLPRVLPRVLPRVLPRVLPRVL
VIS10>6>6>6>6>6>6>6>6>6>6>6>6>6
CIG5050505050505050808080808080
CoverOVCBKNBKNBKNBKNBKNBKNBKNBKNBKNBKNBKNBKNBKN
FltCat--VFRVFRVFRVFRVFRVFRVFRVFRVFRVFRVFRVFRVFR
WX--VCTSVCTSVCTSVCTSVCTSVCTSVCTSVCSHVCSHVCSHVCSHVCSHVCSH
WDirVRB160160160160160160160VRBVRBVRBVRBVRBVRB
WSpd56666666333333
WGst----------------------------
R10/28
XWndVRB-6-6-6-6-6-6-6VRBVRBVRBVRBVRBVRB
HWndVRB2222222VRBVRBVRBVRBVRBVRB
Raw TAF
KFLL 211504Z 2115/2212 17008KT P6SM VCSH SCT030 BKN070
  FM211700 16006KT P6SM VCTS SCT030CB BKN050
  FM220000 VRB03KT P6SM VCSH SCT025 BKN080


Raw METAR
KFLL 211553Z VRB05KT 10SM FEW025 BKN050 OVC110 28/22 A2997 RMK AO2 SLP148 T02780222

TAF Board Legend

Hazard VFR MVFR IFR LIFR
Visibility (sm) >5 3≤X≤5 1≤X<3 <1
Ceiling (100 ft) >30 10≤X≤30 5≤X<10 <5
Wind Speed (kt) <10 10≤X<20 20≤X<30 ≥30
Wind Gust (kt) <15 15≤X<25 25≤X<35 ≥35
Weather No Wx Reported VCTS,-TS,-FZRA TS,FZRA +TS,+FZRA


Page loaded:  16:40 UTC  |   09:40 AM Pacific  |   10:40 AM Mountain  |   11:40 AM Central  |   12:40 PM Eastern

 

ADVISORIES

FORECASTS

FORECASTS

OBSERVATIONS

USER TOOLS

ABOUT US